Time;durP1;ratioP1;P1;durP2;ratioP2;P2;SDS_P1;SDS_P2;PMS_P1;PMS_P2;Temp;Humidity;BMP_temperature;BMP_pressure;BME280_temperature;BME280_humidity;BME280_pressure;Samples;Min_cycle;Max_cycle;Signal;HPM_P1;HPM_P2
2024/04/06 07:12:59;;;;;;;0.20;0.20;;;;;;;19.12;86.66;75922.16;4953455;23;20051;-94
2024/04/06 07:26:25;;;;;;;0.20;0.20;;;;;;;19.36;80.65;75953.78;5003246;23;19930;-92
2024/04/06 07:28:57;;;;;;;0.20;0.20;;;;;;;19.66;81.66;75982.47;4915879;29;20048;-96
2024/04/06 07:31:23;;;;;;;0.20;0.20;;;;;;;19.69;79.68;75986.06;4899927;29;20387;-96
2024/04/06 07:33:52;;;;;;;0.20;0.20;;;;;;;19.21;83.40;75932.97;4916355;29;20031;-95
2024/04/06 07:36:18;;;;;;;0.20;0.20;;;;;;;18.43;87.58;75840.44;4916513;29;20395;-94
2024/04/06 08:08:20;;;;;;;0.20;0.20;;;;;;;18.02;95.61;75793.03;4966708;23;20060;-94
2024/04/06 08:16:10;;;;;;;0.20;0.20;;;;;;;17.71;96.26;75759.19;4976554;23;20461;-95
2024/04/06 08:18:35;;;;;;;0.20;0.20;;;;;;;17.94;94.22;75785.59;4888868;29;20036;-96
2024/04/06 08:21:01;;;;;;;0.20;0.20;;;;;;;17.68;93.73;75755.56;4894068;29;20501;-96
2024/04/06 08:23:26;;;;;;;0.20;0.20;;;;;;;18.32;92.04;75825.66;4892606;29;20043;-96
2024/04/06 08:25:54;;;;;;;0.20;0.20;;;;;;;18.40;90.20;75840.25;4881123;29;20029;-96
2024/04/06 08:28:20;;;;;;;0.20;0.20;;;;;;;18.46;90.40;75844.66;4873061;29;20131;-95
2024/04/06 08:30:45;;;;;;;0.20;0.20;;;;;;;18.16;90.91;75806.41;4885445;29;20071;-96
2024/04/06 08:33:11;;;;;;;0.20;0.20;;;;;;;18.59;89.97;75859.69;4865765;29;20379;-96
2024/04/06 08:35:37;;;;;;;0.20;0.20;;;;;;;18.60;90.54;75858.06;4862917;29;20032;-96
2024/04/06 08:38:07;;;;;;;0.20;0.20;;;;;;;18.72;90.02;75877.50;4862703;29;20373;-96
2024/04/06 08:40:40;;;;;;;0.20;0.20;;;;;;;18.92;89.09;75904.34;4862624;29;20122;-96
2024/04/06 08:43:11;;;;;;;0.20;0.20;;;;;;;19.48;86.62;75961.41;4873725;29;20101;-95
2024/04/06 08:45:38;;;;;;;0.20;0.20;;;;;;;20.52;79.50;76084.06;4865503;29;20037;-96
2024/04/06 08:48:04;;;;;;;0.20;0.20;;;;;;;20.72;78.50;76110.31;4862256;29;20060;-95
2024/04/06 08:50:31;;;;;;;0.20;0.20;;;;;;;21.43;74.54;76194.56;4847759;29;20029;-96
2024/04/06 08:52:57;;;;;;;0.20;0.20;;;;;;;22.07;70.48;76266.97;4851049;29;20100;-95
2024/04/06 08:55:22;;;;;;;0.20;0.20;;;;;;;22.07;67.59;76266.97;4866006;29;20471;-95
2024/04/06 08:57:48;;;;;;;0.20;0.20;;;;;;;22.60;66.38;76330.19;4851756;29;20075;-95
2024/04/06 09:00:16;;;;;;;0.20;0.20;;;;;;;21.69;67.82;76219.63;4877260;29;20029;-96
2024/04/06 09:02:42;;;;;;;0.20;0.20;;;;;;;22.13;67.39;76266.34;4872166;29;20029;-94
2024/04/06 09:05:10;;;;;;;0.20;0.20;;;;;;;22.35;64.36;76294.44;4865297;29;20040;-94
2024/04/06 09:07:36;;;;;;;0.20;0.20;;;;;;;21.67;66.33;76223.41;4875111;29;20128;-94
2024/04/06 09:10:01;;;;;;;0.20;0.20;;;;;;;22.59;63.57;76322.75;4860617;29;20111;-95
2024/04/06 09:12:27;;;;;;;0.20;0.20;;;;;;;23.22;59.92;76403.03;4866155;29;20481;-94
2024/04/06 09:14:52;;;;;;;0.20;0.20;;;;;;;22.95;60.51;76366.09;4855577;29;20053;-94
2024/04/06 09:17:19;;;;;;;0.20;0.20;;;;;;;22.83;60.28;76353.84;4865275;29;20485;-95
2024/04/06 09:19:45;;;;;;;0.20;0.20;;;;;;;22.59;62.13;76331.19;4876675;29;20045;-94
2024/04/06 09:22:11;;;;;;;0.20;0.20;;;;;;;22.55;60.49;76323.56;4872102;29;20029;-95
2024/04/06 09:24:39;;;;;;;0.20;0.20;;;;;;;22.67;61.53;76332.34;4881508;29;20037;-94
2024/04/06 09:27:06;;;;;;;0.20;0.20;;;;;;;23.10;61.25;76385.78;4883102;29;20035;-94
2024/04/06 09:29:31;;;;;;;0.20;0.20;;;;;;;24.22;55.12;76521.72;4865278;29;20037;-93
2024/04/06 09:32:01;;;;;;;0.20;0.20;;;;;;;22.42;60.95;76309.09;4857970;29;20049;-93
2024/04/06 09:34:30;;;;;;;0.10;0.10;;;;;;;22.58;60.91;76327.75;4862388;29;20119;-96
2024/04/06 09:37:07;;;;;;;0.15;0.15;;;;;;;22.21;62.61;76278.19;4870963;29;20203;-96
2024/04/06 09:39:34;;;;;;;0.20;0.20;;;;;;;22.21;61.28;76289.44;4869181;29;20037;-95
2024/04/06 09:42:01;;;;;;;0.20;0.20;;;;;;;22.54;60.59;76322.94;4883982;29;20488;-96
2024/04/06 09:44:31;;;;;;;0.17;0.17;;;;;;;22.90;60.19;76360.06;4852327;29;20041;-96
2024/04/06 09:46:57;;;;;;;0.20;0.20;;;;;;;23.11;58.99;76390.38;4846586;29;20482;-95
2024/04/06 09:49:23;;;;;;;0.20;0.20;;;;;;;23.70;57.39;76456.84;4857526;29;20025;-94
2024/04/06 09:51:53;;;;;;;0.20;0.20;;;;;;;23.05;59.86;76376.94;4864757;29;20033;-96
2024/04/06 09:54:19;;;;;;;0.20;0.20;;;;;;;23.37;57.59;76418.28;4865059;29;20080;-95
2024/04/06 09:56:48;;;;;;;0.20;0.20;;;;;;;23.58;56.88;76445.19;4864387;29;20116;-95
2024/04/06 09:59:21;;;;;;;0.20;0.20;;;;;;;23.75;57.90;76469.13;4862184;29;20873;-95
2024/04/06 10:01:47;;;;;;;0.15;0.15;;;;;;;23.73;56.51;76458.25;4857405;29;20358;-94
2024/04/06 10:04:33;;;;;;;0.10;0.10;;;;;;;23.59;56.38;76444.19;4879799;29;20040;-94
2024/04/06 10:07:02;;;;;;;0.10;0.10;;;;;;;23.31;57.77;76413.28;4873248;29;20037;-95
2024/04/06 10:09:37;;;;;;;0.10;0.10;;;;;;;23.34;56.83;76417.50;4864418;29;20370;-95
2024/04/06 10:12:07;;;;;;;0.10;0.10;;;;;;;23.36;57.10;76414.25;4864316;29;20114;-96
2024/04/06 10:14:43;;;;;;;0.10;0.10;;;;;;;22.52;61.86;76317.13;4872793;29;20052;-96
2024/04/06 10:17:14;;;;;;;0.20;0.20;;;;;;;23.38;57.93;76422.31;4838879;29;20044;-95
2024/04/06 10:19:39;;;;;;;0.20;0.20;;;;;;;23.36;57.18;76419.91;4833635;29;20049;-95
2024/04/06 10:22:06;;;;;;;0.10;0.10;;;;;;;23.86;54.35;76476.13;4846172;29;20037;-94
2024/04/06 10:24:34;;;;;;;0.10;0.10;;;;;;;23.92;53.60;76486.19;4847698;29;20057;-94
2024/04/06 10:27:00;;;;;;;0.20;0.20;;;;;;;23.42;55.27;76423.72;4842588;29;20114;-93
2024/04/06 10:29:31;;;;;;;0.20;0.20;;;;;;;23.68;54.34;76454.44;4829440;29;20026;-95
2024/04/06 10:31:57;;;;;;;0.20;0.20;;;;;;;23.15;53.20;76394.63;4846550;29;20037;-95
2024/04/06 10:34:23;;;;;;;0.20;0.20;;;;;;;22.80;55.91;76350.84;4848166;29;20032;-96
2024/04/06 10:36:49;;;;;;;0.20;0.20;;;;;;;22.97;56.18;76367.91;4845330;29;20026;-95
2024/04/06 10:39:16;;;;;;;0.10;0.10;;;;;;;22.40;56.54;76301.06;4836952;29;20351;-95
2024/04/06 10:41:43;;;;;;;0.10;0.10;;;;;;;22.31;56.69;76293.03;4845841;29;20120;-93
2024/04/06 10:44:09;;;;;;;0.20;0.20;;;;;;;22.39;55.01;76299.25;4845502;29;20033;-94
2024/04/06 10:46:34;;;;;;;0.20;0.20;;;;;;;22.78;54.12;76351.22;4845494;29;20017;-94
2024/04/06 10:49:00;;;;;;;0.10;0.10;;;;;;;23.13;52.14;76392.81;4845790;29;20033;-95
2024/04/06 10:51:26;;;;;;;0.10;0.10;;;;;;;23.47;52.11;76433.16;4845629;29;20033;-95
2024/04/06 10:53:53;;;;;;;0.10;0.10;;;;;;;23.89;51.01;76476.91;4845593;29;20033;-95
2024/04/06 10:56:20;;;;;;;0.10;0.10;;;;;;;23.05;51.69;76379.75;4830008;29;20065;-93
2024/04/06 10:58:46;;;;;;;0.10;0.10;;;;;;;23.55;51.61;76439.38;4830198;29;20034;-95
2024/04/06 11:01:12;;;;;;;0.17;0.17;;;;;;;22.92;52.51;76364.69;4837743;29;20608;-93
2024/04/06 11:03:38;;;;;;;0.10;0.10;;;;;;;22.99;52.06;76376.53;4845163;29;20478;-94
2024/04/06 11:06:04;;;;;;;0.20;0.20;;;;;;;24.02;51.00;76498.25;4844483;29;20040;-95
2024/04/06 11:08:30;;;;;;;0.20;0.20;;;;;;;23.61;49.45;76446.00;4827453;29;20451;-94
2024/04/06 11:10:58;;;;;;;0.10;0.10;;;;;;;23.23;49.86;76401.44;4841557;29;20034;-95
2024/04/06 11:13:27;;;;;;;0.20;0.20;;;;;;;23.47;50.52;76430.31;4856412;29;20029;-94
2024/04/06 11:15:52;;;;;;;0.20;0.20;;;;;;;22.65;51.54;76333.38;4844169;29;20413;-95
2024/04/06 11:18:18;;;;;;;0.20;0.20;;;;;;;22.65;51.43;76336.19;4845904;29;20089;-95
2024/04/06 11:20:44;;;;;;;0.20;0.20;;;;;;;23.16;50.73;76390.78;4845995;29;20037;-95
2024/04/06 11:23:19;;;;;;;0.20;0.20;;;;;;;22.47;51.63;76317.31;4833092;29;20512;-94
2024/04/06 11:25:45;;;;;;;0.20;0.20;;;;;;;22.37;54.18;76297.47;4847693;29;20061;-96
2024/04/06 11:28:11;;;;;;;0.20;0.20;;;;;;;23.31;52.63;76411.06;4851175;29;20097;-96
2024/04/06 11:30:37;;;;;;;0.20;0.20;;;;;;;23.15;53.87;76388.97;4849176;29;20033;-95
2024/04/06 11:33:03;;;;;;;0.20;0.20;;;;;;;22.68;55.90;76339.19;4849485;29;20116;-96
2024/04/06 11:35:30;;;;;;;0.10;0.10;;;;;;;22.36;57.10;76301.88;4865472;29;20117;-95
2024/04/06 11:37:57;;;;;;;0.10;0.10;;;;;;;23.19;54.14;76394.41;4831631;29;20622;-96
2024/04/06 11:40:22;;;;;;;0.10;0.10;;;;;;;23.27;55.14;76403.41;4845018;29;20026;-96
2024/04/06 11:42:48;;;;;;;0.10;0.10;;;;;;;22.20;57.95;76286.03;4827865;29;20671;-95
2024/04/06 11:45:13;;;;;;;0.10;0.10;;;;;;;22.37;58.07;76296.84;4833866;29;20148;-94
2024/04/06 11:47:41;;;;;;;0.20;0.20;;;;;;;23.09;55.79;76382.34;4835216;29;20366;-95
2024/04/06 11:50:07;;;;;;;0.10;0.10;;;;;;;22.96;56.49;76372.34;4828937;29;20035;-95
2024/04/06 11:52:33;;;;;;;0.20;0.20;;;;;;;22.98;55.89;76375.34;4828040;29;20065;-95
2024/04/06 11:54:58;;;;;;;0.20;0.20;;;;;;;22.70;56.29;76339.41;4829776;29;20037;-94
2024/04/06 11:57:24;;;;;;;0.10;0.10;;;;;;;22.31;58.05;76290.22;4845092;29;20383;-96
2024/04/06 11:59:49;;;;;;;0.10;0.10;;;;;;;22.64;57.56;76331.56;4850775;29;20025;-96
2024/04/06 12:02:14;;;;;;;0.20;0.20;;;;;;;22.45;58.29;76312.72;4829993;29;20030;-96
2024/04/06 12:04:40;;;;;;;0.17;0.17;;;;;;;22.08;59.39;76265.34;4843871;29;20120;-96
2024/04/06 12:07:07;;;;;;;0.20;0.20;;;;;;;21.95;59.13;76253.72;4829990;29;20026;-95
2024/04/06 12:09:32;;;;;;;0.13;0.13;;;;;;;22.45;58.44;76307.06;4829060;29;20022;-95
2024/04/06 12:11:58;;;;;;;0.10;0.10;;;;;;;22.42;59.11;76305.69;4829444;29;20034;-95
2024/04/06 12:14:24;;;;;;;0.10;0.10;;;;;;;22.62;59.40;76323.50;4832315;29;20033;-95
2024/04/06 12:16:51;;;;;;;0.15;0.15;;;;;;;22.65;59.42;76333.38;4875239;29;20116;-96
2024/04/06 12:19:17;;;;;;;0.20;0.20;;;;;;;22.12;61.05;76270.78;4889128;29;20041;-95
2024/04/06 12:21:42;;;;;;;0.20;0.20;;;;;;;22.38;61.87;76301.47;4867293;29;20029;-95
2024/04/06 12:24:08;;;;;;;0.20;0.20;;;;;;;21.59;61.85;76210.41;4864711;29;20504;-96
2024/04/06 12:26:33;;;;;;;0.20;0.20;;;;;;;22.21;61.93;76281.00;4863316;29;20037;-95
2024/04/06 12:28:59;;;;;;;0.10;0.10;;;;;;;21.34;65.95;76181.50;4880473;29;20037;-96
2024/04/06 12:31:26;;;;;;;0.20;0.20;;;;;;;21.92;65.26;76252.31;4875396;29;20387;-95
2024/04/06 12:33:52;;;;;;;0.10;0.10;;;;;;;21.42;66.17;76190.53;4880228;29;20503;-96
2024/04/06 12:36:18;;;;;;;0.20;0.20;;;;;;;22.08;62.55;76262.53;4886034;29;20052;-95
2024/04/06 12:38:43;;;;;;;0.20;0.20;;;;;;;22.44;62.03;76303.06;4884028;29;20482;-96
2024/04/06 12:41:09;;;;;;;0.10;0.10;;;;;;;22.09;63.10;76267.13;4863308;29;20033;-94
2024/04/06 12:43:34;;;;;;;0.20;0.20;;;;;;;22.62;60.86;76332.56;4862700;29;20021;-94
2024/04/06 12:46:01;;;;;;;0.20;0.20;;;;;;;22.46;59.91;76313.31;4873922;29;20033;-94
2024/04/06 12:48:26;;;;;;;0.10;0.10;;;;;;;22.39;61.19;76299.25;4862633;29;20033;-94
2024/04/06 12:50:52;;;;;;;0.10;0.10;;;;;;;22.83;59.58;76354.44;4873811;29;20033;-93
2024/04/06 12:53:17;;;;;;;0.20;0.20;;;;;;;22.43;61.42;76309.72;4880967;29;20048;-94
2024/04/06 12:55:44;;;;;;;0.10;0.10;;;;;;;22.17;59.06;76279.00;4881533;29;20037;-95
2024/04/06 12:58:09;;;;;;;0.10;0.10;;;;;;;21.74;63.05;76225.03;4876931;29;20038;-94
2024/04/06 13:00:35;;;;;;;0.20;0.20;;;;;;;21.97;61.80;76252.69;4866845;29;20512;-95
2024/04/06 13:03:00;;;;;;;0.10;0.10;;;;;;;22.38;60.56;76295.25;4878559;29;20041;-94
2024/04/06 13:05:29;;;;;;;0.10;0.10;;;;;;;22.33;61.96;76294.84;4875773;29;20041;-95
2024/04/06 13:07:54;;;;;;;0.20;0.20;;;;;;;22.01;61.20;76259.75;4881158;29;20517;-95
2024/04/06 13:10:23;;;;;;;0.20;0.20;;;;;;;22.03;63.95;76259.91;4876565;29;20045;-95
2024/04/06 13:12:48;;;;;;;0.17;0.17;;;;;;;22.12;64.24;76273.59;4869413;29;20032;-95
2024/04/06 13:15:14;;;;;;;0.20;0.20;;;;;;;22.54;59.75;76317.31;4869715;29;20053;-95
2024/04/06 13:17:41;;;;;;;0.20;0.20;;;;;;;22.74;58.72;76343.59;4867444;29;20099;-95
2024/04/06 13:22:46;;;;;;;0.10;0.10;;;;;;;22.46;60.46;76313.31;4892145;29;20144;-93
2024/04/06 13:25:16;;;;;;;0.10;0.10;;;;;;;22.29;61.57;76292.84;4873079;29;20056;-94
2024/04/06 13:27:42;;;;;;;0.10;0.10;;;;;;;21.90;64.03;76247.09;4880406;29;20048;-96
2024/04/06 13:30:08;;;;;;;0.20;0.20;;;;;;;22.06;59.83;76257.91;4879498;29;20037;-95
2024/04/06 13:32:35;;;;;;;0.10;0.10;;;;;;;22.45;61.91;76309.91;4878243;29;20033;-94
2024/04/06 13:35:01;;;;;;;0.10;0.10;;;;;;;21.86;63.63;76240.06;4862238;29;20098;-95
2024/04/06 13:37:31;;;;;;;0.10;0.10;;;;;;;22.31;62.33;76295.84;4862875;29;20374;-96
2024/04/06 13:39:57;;;;;;;0.10;0.10;;;;;;;22.42;64.61;76309.09;4878715;29;20084;-94
2024/04/06 13:42:22;;;;;;;0.13;0.13;;;;;;;22.25;64.00;76288.63;4880413;29;20061;-93
2024/04/06 13:44:47;;;;;;;0.10;0.10;;;;;;;22.58;63.87;76327.75;4873900;29;20173;-93
2024/04/06 13:47:13;;;;;;;0.10;0.10;;;;;;;22.54;63.66;76325.78;4861746;29;20037;-95
2024/04/06 13:49:39;;;;;;;0.10;0.10;;;;;;;21.86;65.21;76240.06;4876988;29;20058;-94
2024/04/06 13:52:08;;;;;;;0.10;0.10;;;;;;;22.21;65.39;76283.81;4880720;29;20040;-94
2024/04/06 13:54:36;;;;;;;0.20;0.20;;;;;;;22.30;61.47;76291.84;4880455;29;20021;-92
2024/04/06 13:57:01;;;;;;;0.10;0.10;;;;;;;21.65;67.03;76211.97;4879811;29;20033;-94
2024/04/06 13:59:27;;;;;;;0.10;0.10;;;;;;;21.80;68.05;76232.84;4871965;29;20100;-93
2024/04/06 14:01:53;;;;;;;0.10;0.10;;;;;;;21.72;69.79;76220.41;4875327;29;20029;-94
2024/04/06 14:04:19;;;;;;;0.20;0.20;;;;;;;22.03;69.78;76256.50;4877505;29;20116;-94
2024/04/06 14:06:47;;;;;;;0.20;0.20;;;;;;;21.69;71.34;76220.22;4882840;29;20041;-96
2024/04/06 14:09:14;;;;;;;0.20;0.20;;;;;;;21.37;71.62;76181.72;4880739;29;20025;-95
2024/04/06 14:11:43;;;;;;;0.20;0.20;;;;;;;22.12;68.90;76270.78;4880281;29;20076;-96
2024/04/06 14:14:21;;;;;;;0.13;0.13;;;;;;;21.71;68.60;76222.00;4878607;29;20550;-96
2024/04/06 14:16:55;;;;;;;0.20;0.20;;;;;;;22.01;69.21;76256.91;4879253;29;20136;-96
2024/04/06 14:19:25;;;;;;;0.10;0.10;;;;;;;22.17;67.86;76284.66;4871276;29;20061;-96
2024/04/06 14:21:52;;;;;;;0.20;0.20;;;;;;;22.21;67.06;76278.19;4878434;29;20044;-93
2024/04/06 14:24:18;;;;;;;0.10;0.10;;;;;;;22.54;65.52;76322.34;4878819;29;20560;-95
2024/04/06 14:26:45;;;;;;;0.10;0.10;;;;;;;21.95;69.32;76247.50;4871109;29;20178;-94
2024/04/06 14:29:11;;;;;;;0.10;0.10;;;;;;;21.66;69.93;76216.00;4859825;29;20056;-94
2024/04/06 14:31:37;;;;;;;0.10;0.10;;;;;;;21.84;70.78;76237.66;4860360;29;20041;-94
2024/04/06 14:34:03;;;;;;;0.20;0.20;;;;;;;21.59;71.17;76207.59;4859931;29;20056;-95
2024/04/06 14:36:33;;;;;;;0.20;0.20;;;;;;;21.67;71.43;76217.19;4866665;29;20116;-95
2024/04/06 14:38:58;;;;;;;0.10;0.10;;;;;;;21.40;73.16;76183.09;4896839;29;20131;-96
2024/04/06 14:41:24;;;;;;;0.20;0.20;;;;;;;21.63;71.99;76212.41;4896311;29;20024;-93
2024/04/06 14:43:50;;;;;;;0.20;0.20;;;;;;;21.35;72.88;76182.72;4890966;29;20028;-96
2024/04/06 14:46:16;;;;;;;0.20;0.20;;;;;;;21.82;71.32;76237.47;4877978;29;20029;-93
2024/04/06 14:48:41;;;;;;;0.20;0.20;;;;;;;21.44;71.87;76187.91;4877951;29;20072;-94
2024/04/06 14:51:06;;;;;;;0.20;0.20;;;;;;;21.54;73.58;76198.75;4867815;29;20043;-95
2024/04/06 14:53:32;;;;;;;0.10;0.10;;;;;;;21.34;73.64;76178.69;4859464;29;20052;-94
2024/04/06 14:55:57;;;;;;;0.20;0.20;;;;;;;21.41;74.35;76187.13;4859370;29;20124;-94
2024/04/06 14:58:23;;;;;;;0.20;0.20;;;;;;;21.48;74.30;76185.91;4868322;29;20021;-96
2024/04/06 15:01:01;;;;;;;0.20;0.20;;;;;;;21.40;72.81;76185.91;4877900;29;20069;-95
2024/04/06 15:03:26;;;;;;;0.20;0.20;;;;;;;21.19;75.56;76157.81;4862887;29;20434;-95
2024/04/06 15:05:52;;;;;;;0.20;0.20;;;;;;;20.89;77.85;76125.75;4877170;29;20123;-96
2024/04/06 15:08:18;;;;;;;0.20;0.20;;;;;;;20.72;79.95;76104.69;4878261;29;20057;-96
2024/04/06 15:10:43;;;;;;;0.20;0.20;;;;;;;20.92;79.16;76132.16;4877972;29;20060;-96
2024/04/06 15:13:10;;;;;;;0.20;0.20;;;;;;;21.06;78.18;76151.22;4861437;29;20038;-95
2024/04/06 15:15:36;;;;;;;0.20;0.20;;;;;;;20.92;79.21;76129.34;4870414;29;20053;-95
2024/04/06 15:18:04;;;;;;;0.20;0.20;;;;;;;20.76;79.52;76112.91;4877296;29;20548;-96
2024/04/06 15:20:34;;;;;;;0.20;0.20;;;;;;;20.76;79.37;76115.72;4877926;29;20052;-95
2024/04/06 15:23:00;;;;;;;0.20;0.20;;;;;;;20.65;80.48;76099.69;4877807;29;20089;-95
2024/04/06 15:25:26;;;;;;;0.20;0.20;;;;;;;20.57;80.70;76087.88;4874077;29;20041;-96
2024/04/06 15:27:54;;;;;;;0.20;0.20;;;;;;;20.16;81.96;76041.97;4876958;29;20055;-96
2024/04/06 15:30:19;;;;;;;0.20;0.20;;;;;;;20.49;81.06;76080.47;4877493;29;20037;-96
2024/04/06 15:32:45;;;;;;;0.20;0.20;;;;;;;20.03;81.95;76026.94;4879007;29;20449;-96
2024/04/06 15:35:13;;;;;;;0.20;0.20;;;;;;;20.30;80.82;76058.19;4877462;29;20438;-95
2024/04/06 15:37:39;;;;;;;0.20;0.20;;;;;;;20.01;81.70;76024.53;4877598;29;20066;-96
2024/04/06 15:40:05;;;;;;;0.20;0.20;;;;;;;20.41;79.79;76071.44;4877369;29;20033;-96
2024/04/06 15:42:33;;;;;;;0.20;0.20;;;;;;;20.08;81.32;76032.34;4877429;29;20057;-96
2024/04/06 15:44:59;;;;;;;0.20;0.20;;;;;;;20.01;81.99;76018.31;4878509;29;20037;-96
2024/04/06 15:47:28;;;;;;;0.20;0.20;;;;;;;19.90;82.53;76011.31;4859244;29;20033;-96
2024/04/06 15:49:53;;;;;;;0.17;0.17;;;;;;;19.68;85.22;75984.88;4858989;29;20188;-96
2024/04/06 15:52:22;;;;;;;0.20;0.20;;;;;;;19.85;84.58;75997.47;4876372;29;20249;-96
2024/04/06 15:54:48;;;;;;;0.20;0.20;;;;;;;19.58;85.31;75976.22;4879145;29;20089;-96
2024/04/06 15:57:14;;;;;;;0.20;0.20;;;;;;;19.05;87.63;75910.94;4880056;29;20100;-96
2024/04/06 15:59:42;;;;;;;0.20;0.20;;;;;;;19.05;88.41;75913.75;4864870;29;20101;-95
2024/04/06 16:02:09;;;;;;;0.17;0.17;;;;;;;19.35;88.14;75946.41;4864138;29;20112;-96
2024/04/06 16:04:36;;;;;;;0.20;0.20;;;;;;;19.31;89.36;75944.97;4871665;29;20040;-95
2024/04/06 16:07:05;;;;;;;0.20;0.20;;;;;;;19.24;88.81;75935.97;4882939;29;20085;-96
2024/04/06 16:09:33;;;;;;;0.20;0.20;;;;;;;19.52;88.27;75966.22;4886341;29;20053;-96
2024/04/06 16:11:59;;;;;;;0.20;0.20;;;;;;;19.37;87.57;75948.78;4889191;29;20065;-96
2024/04/06 16:14:31;;;;;;;0.20;0.20;;;;;;;19.47;87.86;75960.22;4885198;29;20076;-96
2024/04/06 16:16:57;;;;;;;0.20;0.20;;;;;;;19.38;88.37;75950.59;4884740;29;20049;-96
2024/04/06 16:19:23;;;;;;;0.20;0.20;;;;;;;19.27;89.60;75937.38;4885406;29;20025;-96
2024/04/06 16:21:49;;;;;;;0.20;0.20;;;;;;;19.26;89.60;75936.16;4886631;29;20148;-96
2024/04/06 16:24:16;;;;;;;0.20;0.20;;;;;;;19.04;90.09;75912.53;4884661;29;20033;-96
2024/04/06 16:26:42;;;;;;;0.20;0.20;;;;;;;18.99;90.84;75903.75;4885287;29;20029;-96
2024/04/06 16:29:07;;;;;;;0.20;0.20;;;;;;;19.11;90.82;75918.16;4888583;29;20037;-96
2024/04/06 16:31:34;;;;;;;0.20;0.20;;;;;;;18.97;91.07;75901.34;4893978;29;20473;-96
2024/04/06 16:34:00;;;;;;;0.20;0.20;;;;;;;18.95;90.61;75907.34;4886198;29;20124;-96
2024/04/06 16:36:26;;;;;;;0.20;0.20;;;;;;;18.92;90.64;75901.53;4879164;29;20029;-96
2024/04/06 16:38:52;;;;;;;0.20;0.20;;;;;;;18.99;90.19;75900.94;4883107;29;20401;-96
2024/04/06 16:41:18;;;;;;;0.20;0.20;;;;;;;18.77;90.45;75878.50;4881331;29;20069;-96
2024/04/06 16:43:43;;;;;;;0.20;0.20;;;;;;;18.36;91.98;75834.84;4864708;29;20135;-96
2024/04/06 16:46:10;;;;;;;0.20;0.20;;;;;;;18.62;91.42;75860.47;4886032;29;20031;-96
2024/04/06 16:48:35;;;;;;;0.20;0.20;;;;;;;18.64;90.24;75862.88;4874930;29;20434;-96
2024/04/06 16:51:00;;;;;;;0.20;0.20;;;;;;;18.23;91.35;75814.25;4883706;29;20073;-95
2024/04/06 16:53:26;;;;;;;0.20;0.20;;;;;;;18.02;91.64;75792.44;4883683;29;20033;-95
2024/04/06 16:55:51;;;;;;;0.20;0.20;;;;;;;18.29;91.62;75822.03;4883984;29;20119;-95
2024/04/06 16:58:17;;;;;;;0.20;0.20;;;;;;;18.20;91.83;75811.22;4884104;29;20101;-96
2024/04/06 17:00:43;;;;;;;0.20;0.20;;;;;;;18.17;92.12;75807.63;4885620;29;20080;-96
2024/04/06 17:03:12;;;;;;;0.20;0.20;;;;;;;18.14;92.29;75801.22;4887503;29;20092;-96
2024/04/06 17:05:38;;;;;;;0.20;0.20;;;;;;;18.08;92.88;75799.63;4890027;29;20036;-96
2024/04/06 17:08:04;;;;;;;0.20;0.20;;;;;;;17.98;93.51;75790.41;4885513;29;20453;-96
2024/04/06 17:10:36;;;;;;;0.20;0.20;;;;;;;17.94;92.74;75777.22;4888112;29;20032;-96
2024/04/06 17:13:17;;;;;;;0.20;0.20;;;;;;;17.78;93.03;75764.78;4896669;29;20040;-96
2024/04/06 17:15:42;;;;;;;0.20;0.20;;;;;;;17.67;93.81;75748.78;4885177;29;20439;-96
2024/04/06 17:18:08;;;;;;;0.20;0.20;;;;;;;17.61;94.24;75746.56;4886656;29;20051;-96
2024/04/06 17:20:35;;;;;;;0.20;0.20;;;;;;;17.48;94.46;75731.56;4876203;29;20041;-96
2024/04/06 17:23:01;;;;;;;0.20;0.20;;;;;;;17.50;94.85;75728.38;4889147;29;20033;-96
2024/04/06 17:25:30;;;;;;;0.20;0.20;;;;;;;17.62;95.49;75745.56;4880317;29;20045;-96
2024/04/06 17:27:59;;;;;;;0.20;0.20;;;;;;;17.55;96.25;75734.97;4885376;29;20073;-96
2024/04/06 17:30:24;;;;;;;0.20;0.20;;;;;;;17.71;97.16;75756.38;4890910;29;20081;-96
2024/04/06 17:32:52;;;;;;;0.20;0.20;;;;;;;17.43;97.61;75722.78;4886676;29;20073;-96
2024/04/06 17:35:18;;;;;;;0.20;0.20;;;;;;;17.57;98.32;75739.56;4887733;29;20033;-96
2024/04/06 17:37:44;;;;;;;0.20;0.20;;;;;;;17.27;98.15;75701.97;4889189;29;20039;-96
2024/04/06 17:40:13;;;;;;;0.20;0.20;;;;;;;17.23;98.90;75697.19;4869337;29;20049;-96
2024/04/06 17:42:39;;;;;;;0.20;0.20;;;;;;;17.40;99.63;75716.97;4877914;29;20100;-96
2024/04/06 17:48:19;;;;;;;0.20;0.20;;;;;;;16.57;100.00;75624.16;5810522;23;20067;-96
2024/04/06 17:50:45;;;;;;;0.20;0.20;;;;;;;16.70;100.00;75634.75;4942990;28;20040;-96
2024/04/06 17:53:11;;;;;;;0.20;0.20;;;;;;;16.83;100.00;75649.16;4948410;29;20047;-96
2024/04/06 17:55:37;;;;;;;0.20;0.20;;;;;;;16.76;100.00;75641.97;4925452;29;20059;-96
2024/04/06 17:58:03;;;;;;;0.20;0.20;;;;;;;16.60;100.00;75624.97;4942026;29;20110;-96
2024/04/06 18:00:29;;;;;;;0.20;0.20;;;;;;;16.77;100.00;75648.75;4915862;29;20071;-96
2024/04/06 18:02:55;;;;;;;0.20;0.20;;;;;;;16.85;100.00;75651.59;4928656;29;20039;-95
2024/04/06 18:05:21;;;;;;;0.20;0.20;;;;;;;16.47;100.00;75612.75;4938801;29;20070;-96
2024/04/06 18:07:46;;;;;;;0.20;0.20;;;;;;;16.47;100.00;75618.34;4938451;29;20024;-96
2024/04/06 18:10:12;;;;;;;0.20;0.20;;;;;;;16.59;100.00;75620.97;4937100;29;20059;-96
2024/04/06 18:12:37;;;;;;;0.20;0.20;;;;;;;16.49;100.00;75617.94;4933013;29;20119;-96
2024/04/06 18:15:03;;;;;;;0.20;0.20;;;;;;;16.46;100.00;75612.16;4933136;29;20094;-96
2024/04/06 18:17:29;;;;;;;0.20;0.20;;;;;;;16.62;100.00;75630.13;4934768;29;20126;-95
2024/04/06 18:23:06;;;;;;;0.20;0.20;;;;;;;16.47;100.00;75607.78;4961930;23;20052;-95
2024/04/06 18:25:32;;;;;;;0.20;0.20;;;;;;;16.45;100.00;75601.97;4936828;29;20558;-95
2024/04/06 18:27:57;;;;;;;0.20;0.20;;;;;;;16.58;100.00;75619.78;4936113;29;20027;-96
2024/04/06 18:30:22;;;;;;;0.20;0.20;;;;;;;16.41;100.00;75606.16;4925481;29;20069;-96
2024/04/06 18:32:48;;;;;;;0.20;0.20;;;;;;;16.53;100.00;75619.97;4910054;29;20043;-95
2024/04/06 18:35:14;;;;;;;0.20;0.20;;;;;;;16.58;100.00;75620.38;4917815;29;20054;-95
2024/04/06 18:37:39;;;;;;;0.20;0.20;;;;;;;16.63;100.00;75625.78;4918650;29;20091;-94
2024/04/06 18:40:05;;;;;;;0.20;0.20;;;;;;;16.53;100.00;75617.16;4923293;29;20050;-96
2024/04/06 18:42:33;;;;;;;0.20;0.20;;;;;;;16.42;100.00;75603.97;4916310;29;20099;-96
2024/04/06 18:45:02;;;;;;;0.20;0.20;;;;;;;16.29;100.00;75585.59;4919600;29;20068;-95
2024/04/06 18:50:25;;;;;;;0.20;0.20;;;;;;;16.30;100.00;75595.75;5005577;23;20064;-96
2024/04/06 18:52:51;;;;;;;0.20;0.20;;;;;;;16.30;100.00;75589.56;4944146;29;20571;-96
2024/04/06 18:58:10;;;;;;;0.20;0.20;;;;;;;16.27;100.00;75583.19;4953866;23;20056;-96
2024/04/06 19:00:37;;;;;;;0.20;0.20;;;;;;;16.07;100.00;75563.19;4894642;29;20040;-96
2024/04/06 19:03:04;;;;;;;0.20;0.20;;;;;;;16.01;100.00;75555.41;4928361;29;20119;-96
2024/04/06 19:05:35;;;;;;;0.20;0.20;;;;;;;16.08;100.00;75567.16;4946047;29;20036;-96
2024/04/06 19:08:01;;;;;;;0.20;0.20;;;;;;;15.80;100.00;75528.03;4939117;29;20391;-96
2024/04/06 19:10:52;;;;;;;0.20;0.20;;;;;;;15.64;100.00;75510.03;4946031;29;20372;-96
2024/04/06 19:16:47;;;;;;;0.20;0.20;;;;;;;15.76;100.00;75526.63;4946543;29;20110;-96
2024/04/06 19:19:14;;;;;;;0.20;0.20;;;;;;;16.17;100.00;75575.19;4941220;29;20042;-96
2024/04/06 19:47:43;;;;;;;0.20;0.20;;;;;;;15.15;100.00;75458.06;4989230;23;20063;-93
2024/04/06 21:37:21;;;;;;;0.20;0.20;;;;;;;14.33;100.00;75358.81;4952874;29;20103;-86
2024/04/06 21:40:24;;;;;;;0.20;0.20;;;;;;;14.25;100.00;75345.84;4961022;29;20023;-87
2024/04/06 21:42:53;;;;;;;0.20;0.20;;;;;;;14.26;100.00;75352.59;4948614;29;20066;-87
2024/04/06 21:46:07;;;;;;;0.20;0.20;;;;;;;14.21;100.00;75350.00;4964012;28;20112;-87
2024/04/06 21:49:19;;;;;;;0.20;0.20;;;;;;;14.23;100.00;75346.25;4943825;29;20047;-87
2024/04/06 21:52:09;;;;;;;0.20;0.20;;;;;;;14.26;100.00;75349.81;4968382;28;20064;-87
2024/04/06 21:54:58;;;;;;;0.20;0.20;;;;;;;14.18;100.00;75345.81;4960042;28;20042;-86
2024/04/06 21:57:31;;;;;;;0.20;0.20;;;;;;;14.49;100.00;75380.19;5223820;23;20052;-84
2024/04/06 22:00:19;;;;;;;0.20;0.20;;;;;;;14.57;100.00;75386.97;4937453;28;20036;-86
2024/04/06 22:06:48;;;;;;;0.20;0.20;;;;;;;14.57;100.00;75389.16;4922397;29;20061;-87